Terminal Aerodrome Forecast
Issued by NWS Northern Indiana

Home | Current Version | Previous Version | Text Only | Print | Product List | Glossary Off
Versions: 1 2 3 4 5 6 7 8 9 10 11 12 13

000
FTUS43 KIWX 202300
TAFFWA
TAF
KFWA 202320Z 2100/2124 19005KT P6SM SCT250
     FM211200 22008KT P6SM BKN200
     FM212000 24013G19KT P6SM BKN060=

USA.gov is the U.S. government's official web portal to all federal, state and local government web resources and services.